Time;durP1;ratioP1;P1;durP2;ratioP2;P2;SDS_P1;SDS_P2;PMS_P1;PMS_P2;Temp;Humidity;BMP_temperature;BMP_pressure;BME280_temperature;BME280_humidity;BME280_pressure;Samples;Min_cycle;Max_cycle;Signal;HPM_P1;HPM_P2
2023/12/17 00:00:52;;;;;;;0.00;0.00;;;9.70;92.30;;;;;;5085684;28;20452;-73
2023/12/17 00:03:17;;;;;;;0.00;0.00;;;9.70;92.30;;;;;;5087261;28;20072;-73
2023/12/17 00:05:43;;;;;;;0.00;0.00;;;9.70;92.20;;;;;;5086744;28;20052;-73
2023/12/17 00:08:09;;;;;;;0.00;0.00;;;9.80;92.20;;;;;;5087329;28;20126;-72
2023/12/17 00:10:34;;;;;;;9.30;2.83;;;9.80;92.20;;;;;;5086839;28;20413;-73
2023/12/17 00:13:00;;;;;;;0.00;0.00;;;9.70;92.20;;;;;;5086639;28;20050;-73
2023/12/17 00:15:26;;;;;;;0.00;0.00;;;9.70;92.30;;;;;;5086151;28;20101;-73
2023/12/17 00:17:52;;;;;;;12.40;2.63;;;9.70;92.20;;;;;;5086419;28;20090;-73
2023/12/17 00:20:17;;;;;;;0.10;0.10;;;9.70;92.20;;;;;;5086919;28;20072;-72
2023/12/17 00:22:43;;;;;;;1.08;0.95;;;9.80;92.20;;;;;;5086331;28;20159;-73
2023/12/17 00:25:09;;;;;;;0.00;0.00;;;9.70;92.10;;;;;;5086454;28;20048;-73
2023/12/17 00:27:34;;;;;;;0.68;0.68;;;9.80;92.10;;;;;;5086042;28;20052;-73
2023/12/17 00:30:00;;;;;;;0.00;0.00;;;9.80;92.20;;;;;;5101924;28;20495;-73
2023/12/17 00:32:25;;;;;;;2.83;0.90;;;9.90;92.20;;;;;;5086949;28;20097;-73
2023/12/17 00:34:51;;;;;;;0.00;0.00;;;9.80;92.10;;;;;;5086379;28;20040;-73
2023/12/17 00:37:17;;;;;;;0.03;0.03;;;9.80;92.10;;;;;;5086251;28;20135;-73
2023/12/17 00:39:42;;;;;;;0.00;0.00;;;9.80;92.20;;;;;;5086331;28;20129;-73
2023/12/17 00:42:08;;;;;;;0.00;0.00;;;9.80;92.10;;;;;;5068389;28;20573;-74
2023/12/17 00:44:33;;;;;;;0.00;0.00;;;9.90;92.20;;;;;;5084933;28;20554;-73
2023/12/17 00:47:00;;;;;;;1.15;0.80;;;9.90;92.10;;;;;;5085376;28;20044;-73
2023/12/17 00:49:25;;;;;;;0.10;0.10;;;9.90;92.00;;;;;;5076696;28;20126;-73
2023/12/17 00:51:51;;;;;;;0.00;0.00;;;9.90;92.10;;;;;;5068286;28;20129;-73
2023/12/17 00:54:16;;;;;;;0.00;0.00;;;9.90;92.10;;;;;;5084927;28;20036;-73
2023/12/17 00:56:42;;;;;;;8.75;1.15;;;9.90;92.20;;;;;;5067165;28;20036;-73
2023/12/17 00:59:08;;;;;;;0.10;0.10;;;9.80;92.00;;;;;;5073111;28;20047;-73
2023/12/17 01:01:33;;;;;;;0.00;0.00;;;9.90;92.00;;;;;;5089909;28;20048;-73
2023/12/17 01:03:59;;;;;;;0.22;0.22;;;9.90;92.00;;;;;;5089061;28;20044;-74
2023/12/17 01:06:25;;;;;;;0.03;0.03;;;9.90;92.10;;;;;;5089231;28;20051;-73
2023/12/17 01:08:50;;;;;;;0.00;0.00;;;9.90;92.10;;;;;;5089234;28;20398;-73
2023/12/17 01:11:16;;;;;;;0.05;0.05;;;10.00;91.90;;;;;;5089873;28;20040;-73
2023/12/17 01:13:41;;;;;;;0.63;0.63;;;9.90;91.70;;;;;;5088106;28;20166;-73
2023/12/17 01:16:07;;;;;;;0.00;0.00;;;9.90;91.90;;;;;;5089205;28;20052;-73
2023/12/17 01:18:33;;;;;;;0.63;0.63;;;9.80;91.90;;;;;;5089545;28;20044;-73
2023/12/17 01:21:00;;;;;;;0.05;0.05;;;9.90;91.80;;;;;;5089134;28;20040;-73
2023/12/17 01:23:25;;;;;;;0.00;0.00;;;9.80;91.80;;;;;;5089003;28;20048;-74
2023/12/17 01:25:51;;;;;;;0.00;0.00;;;9.80;91.90;;;;;;5082774;28;20388;-73
2023/12/17 01:28:17;;;;;;;0.00;0.00;;;9.80;91.90;;;;;;5103173;28;20547;-73
2023/12/17 01:30:43;;;;;;;0.03;0.03;;;9.90;92.00;;;;;;5070694;28;20044;-73
2023/12/17 01:33:08;;;;;;;0.73;0.73;;;9.90;92.00;;;;;;5087895;28;20128;-73
2023/12/17 01:35:34;;;;;;;0.00;0.00;;;9.70;92.00;;;;;;5088496;28;20048;-74
2023/12/17 01:38:00;;;;;;;0.00;0.00;;;9.70;92.00;;;;;;5088523;28;20452;-73
2023/12/17 01:40:25;;;;;;;0.08;0.08;;;9.80;92.00;;;;;;5053965;28;20044;-74
2023/12/17 01:42:56;;;;;;;0.08;0.08;;;9.70;91.90;;;;;;5087899;28;20036;-74
2023/12/17 01:45:22;;;;;;;0.00;0.00;;;9.60;92.00;;;;;;5088810;28;20445;-74
2023/12/17 01:47:48;;;;;;;0.10;0.10;;;9.70;92.00;;;;;;5070476;28;20046;-73
2023/12/17 01:50:14;;;;;;;0.15;0.15;;;9.70;92.00;;;;;;5087929;28;20051;-73
2023/12/17 01:52:40;;;;;;;0.00;0.00;;;9.60;92.00;;;;;;5088169;28;20530;-73
2023/12/17 01:55:07;;;;;;;0.10;0.10;;;9.60;92.00;;;;;;5088753;28;20124;-74
2023/12/17 01:57:33;;;;;;;0.20;0.20;;;9.50;92.00;;;;;;5087956;28;20456;-73
2023/12/17 01:59:59;;;;;;;0.17;0.17;;;9.60;92.00;;;;;;5085802;28;20096;-74
2023/12/17 02:02:25;;;;;;;0.00;0.00;;;9.50;92.10;;;;;;5088535;28;20089;-73
2023/12/17 02:04:50;;;;;;;0.00;0.00;;;9.60;92.10;;;;;;5088081;28;20040;-73
2023/12/17 02:07:16;;;;;;;0.00;0.00;;;9.50;92.20;;;;;;5088862;28;20039;-73
2023/12/17 02:09:43;;;;;;;0.00;0.00;;;9.40;92.20;;;;;;5069904;28;20052;-73
2023/12/17 02:12:22;;;;;;;0.00;0.00;;;9.50;92.20;;;;;;5069806;28;20467;-73
2023/12/17 02:14:48;;;;;;;0.00;0.00;;;9.50;92.40;;;;;;5088328;28;20036;-73
2023/12/17 02:17:13;;;;;;;0.30;0.30;;;9.50;92.30;;;;;;5087796;28;20502;-73
2023/12/17 02:19:39;;;;;;;0.00;0.00;;;9.50;92.40;;;;;;5087373;28;20048;-73
2023/12/17 02:22:05;;;;;;;1.35;0.90;;;9.40;92.30;;;;;;5069918;28;20102;-73
2023/12/17 02:24:33;;;;;;;0.00;0.00;;;9.50;92.40;;;;;;5088463;28;20855;-73
2023/12/17 02:26:58;;;;;;;0.00;0.00;;;9.60;92.30;;;;;;5089279;28;20060;-74
2023/12/17 02:29:24;;;;;;;0.30;0.30;;;9.60;92.30;;;;;;5088659;28;20039;-74
2023/12/17 02:31:49;;;;;;;0.10;0.10;;;9.60;92.30;;;;;;5088782;28;20054;-73
2023/12/17 02:34:15;;;;;;;0.05;0.05;;;9.50;92.40;;;;;;5088213;28;20048;-72
2023/12/17 02:36:41;;;;;;;0.32;0.32;;;9.60;92.40;;;;;;5088058;28;20736;-74
2023/12/17 02:39:06;;;;;;;0.10;0.10;;;9.70;92.50;;;;;;5069934;28;20051;-72
2023/12/17 02:41:32;;;;;;;0.00;0.00;;;9.60;92.20;;;;;;5087388;28;20070;-73
2023/12/17 02:43:57;;;;;;;0.08;0.08;;;9.70;92.10;;;;;;5087854;28;20528;-73
2023/12/17 02:46:23;;;;;;;0.00;0.00;;;9.70;92.20;;;;;;5087307;28;20097;-73
2023/12/17 02:48:48;;;;;;;0.00;0.00;;;9.70;92.00;;;;;;5086592;28;20058;-74
2023/12/17 02:51:14;;;;;;;0.00;0.00;;;9.60;92.00;;;;;;5069005;28;20050;-74
2023/12/17 02:53:40;;;;;;;0.10;0.10;;;9.60;92.10;;;;;;5069542;28;20040;-74
2023/12/17 02:56:06;;;;;;;0.00;0.00;;;9.60;92.20;;;;;;5088444;28;20051;-73
2023/12/17 02:58:32;;;;;;;0.03;0.03;;;9.60;92.00;;;;;;5087502;28;20636;-73
2023/12/17 03:00:57;;;;;;;2.08;1.90;;;9.60;92.20;;;;;;5053201;28;20066;-73
2023/12/17 03:03:23;;;;;;;0.80;0.80;;;9.60;92.20;;;;;;5068960;28;20135;-73
2023/12/17 03:05:48;;;;;;;0.00;0.00;;;9.50;92.10;;;;;;5088090;28;20094;-73
2023/12/17 03:08:15;;;;;;;0.00;0.00;;;9.50;92.10;;;;;;5087974;28;20044;-73
2023/12/17 03:10:43;;;;;;;1.20;1.17;;;9.40;92.10;;;;;;5087667;28;20056;-73
2023/12/17 03:13:08;;;;;;;0.00;0.00;;;9.50;92.00;;;;;;5087256;28;20071;-73
2023/12/17 03:15:34;;;;;;;8.90;2.03;;;9.40;92.00;;;;;;5087648;28;20083;-73
2023/12/17 03:18:00;;;;;;;0.00;0.00;;;9.50;92.10;;;;;;5087411;28;20044;-73
2023/12/17 03:20:26;;;;;;;0.00;0.00;;;9.50;92.10;;;;;;5087609;28;20883;-73
2023/12/17 03:22:51;;;;;;;0.00;0.00;;;9.40;92.00;;;;;;5086551;28;20373;-74
2023/12/17 03:25:17;;;;;;;0.20;0.20;;;9.40;92.00;;;;;;5087337;28;20040;-74
2023/12/17 03:27:43;;;;;;;2.83;0.73;;;9.50;92.00;;;;;;5085970;28;20044;-73
2023/12/17 03:30:09;;;;;;;0.00;0.00;;;9.40;92.10;;;;;;5072928;28;20177;-73
2023/12/17 03:32:34;;;;;;;0.05;0.05;;;9.30;92.10;;;;;;5068544;28;20155;-73
2023/12/17 03:35:00;;;;;;;0.00;0.00;;;9.40;92.10;;;;;;5087193;28;20044;-73
2023/12/17 03:37:25;;;;;;;0.00;0.00;;;9.30;92.10;;;;;;5086165;28;20502;-73
2023/12/17 03:39:52;;;;;;;0.00;0.00;;;9.30;92.20;;;;;;5086392;28;20043;-73
2023/12/17 03:42:18;;;;;;;0.00;0.00;;;9.30;92.20;;;;;;5086464;28;20533;-73
2023/12/17 03:44:45;;;;;;;0.00;0.00;;;9.30;92.30;;;;;;5087156;28;20044;-73
2023/12/17 03:47:10;;;;;;;0.00;0.00;;;9.30;92.40;;;;;;5086327;28;20043;-73
2023/12/17 03:49:36;;;;;;;0.10;0.10;;;9.20;92.30;;;;;;5086632;28;20048;-73
2023/12/17 03:52:03;;;;;;;0.00;0.00;;;9.30;92.30;;;;;;5086774;28;20127;-74
2023/12/17 03:54:28;;;;;;;0.10;0.10;;;9.30;92.30;;;;;;5086950;28;20032;-73
2023/12/17 03:56:54;;;;;;;0.00;0.00;;;9.20;92.30;;;;;;5086427;28;20042;-73
2023/12/17 03:59:20;;;;;;;0.38;0.38;;;9.20;92.40;;;;;;5086637;28;20503;-73
2023/12/17 04:01:46;;;;;;;0.00;0.00;;;9.30;92.50;;;;;;5086572;28;20076;-73
2023/12/17 04:04:13;;;;;;;0.85;0.85;;;9.10;92.40;;;;;;5077239;28;20040;-73
2023/12/17 04:06:42;;;;;;;0.00;0.00;;;9.20;92.50;;;;;;5086943;28;20064;-74
2023/12/17 04:09:08;;;;;;;0.00;0.00;;;9.20;92.40;;;;;;5087100;28;20462;-73
2023/12/17 04:11:33;;;;;;;0.10;0.10;;;9.10;92.40;;;;;;5086633;28;20063;-73
2023/12/17 04:13:59;;;;;;;0.00;0.00;;;9.20;92.40;;;;;;5086367;28;20415;-73
2023/12/17 04:16:24;;;;;;;0.00;0.00;;;9.10;92.40;;;;;;5086526;28;20039;-73
2023/12/17 04:18:50;;;;;;;0.00;0.00;;;9.10;92.50;;;;;;5086156;28;20043;-74
2023/12/17 04:21:16;;;;;;;0.43;0.43;;;9.10;92.50;;;;;;5085716;28;20036;-73
2023/12/17 04:23:41;;;;;;;0.63;0.63;;;9.10;92.50;;;;;;5086348;28;20089;-74
2023/12/17 04:26:07;;;;;;;0.00;0.00;;;9.10;92.40;;;;;;5085797;28;20048;-73
2023/12/17 04:28:32;;;;;;;0.00;0.00;;;9.10;92.50;;;;;;5086654;28;20105;-73
2023/12/17 04:30:58;;;;;;;0.00;0.00;;;9.10;92.30;;;;;;5068012;28;20044;-73
2023/12/17 04:33:24;;;;;;;3.00;2.20;;;9.10;92.30;;;;;;5086645;28;20909;-73
2023/12/17 04:35:49;;;;;;;0.00;0.00;;;9.10;92.40;;;;;;5089008;28;20040;-73
2023/12/17 04:38:16;;;;;;;0.10;0.10;;;9.10;92.20;;;;;;5090478;28;20640;-73
2023/12/17 04:40:45;;;;;;;0.00;0.00;;;9.10;92.20;;;;;;5090461;28;20510;-73
2023/12/17 04:43:11;;;;;;;0.00;0.00;;;9.10;92.10;;;;;;5089898;28;20048;-73
2023/12/17 04:45:36;;;;;;;0.05;0.05;;;9.00;92.20;;;;;;5077430;28;20402;-73
2023/12/17 04:48:02;;;;;;;0.00;0.00;;;9.00;92.30;;;;;;5090724;28;20051;-73
2023/12/17 04:50:28;;;;;;;6.75;3.30;;;9.10;92.30;;;;;;5089841;28;20510;-73
2023/12/17 04:52:53;;;;;;;0.00;0.00;;;9.10;92.20;;;;;;5090234;28;20036;-72
2023/12/17 04:55:19;;;;;;;0.00;0.00;;;9.10;92.20;;;;;;5090005;28;20039;-73
2023/12/17 04:57:45;;;;;;;0.10;0.10;;;9.10;92.20;;;;;;5090208;28;20126;-73
2023/12/17 05:00:11;;;;;;;0.00;0.00;;;9.10;92.10;;;;;;5088942;28;20036;-73
2023/12/17 05:02:37;;;;;;;0.57;0.57;;;9.10;92.10;;;;;;5072611;28;20085;-74
2023/12/17 05:05:03;;;;;;;0.10;0.10;;;9.10;92.20;;;;;;5105755;28;20044;-73
2023/12/17 05:07:29;;;;;;;0.00;0.00;;;9.10;92.20;;;;;;5090021;28;20563;-74
2023/12/17 05:09:55;;;;;;;0.00;0.00;;;9.10;92.20;;;;;;5089669;28;20097;-73
2023/12/17 05:12:20;;;;;;;0.10;0.10;;;9.10;92.20;;;;;;5089026;28;20105;-73
2023/12/17 05:14:46;;;;;;;1.02;1.02;;;9.10;92.10;;;;;;5089387;28;20101;-73
2023/12/17 05:17:11;;;;;;;0.00;0.00;;;9.10;92.10;;;;;;5089809;28;20135;-74
2023/12/17 05:19:37;;;;;;;0.10;0.10;;;9.10;92.10;;;;;;5089591;28;20044;-74
2023/12/17 05:22:03;;;;;;;0.00;0.00;;;9.10;92.20;;;;;;5089795;28;20047;-73
2023/12/17 05:24:28;;;;;;;0.00;0.00;;;9.20;92.10;;;;;;5088764;28;20417;-73
2023/12/17 05:26:54;;;;;;;0.10;0.10;;;9.20;92.10;;;;;;5088972;28;20044;-74
2023/12/17 05:29:20;;;;;;;0.15;0.15;;;9.20;92.10;;;;;;5088735;28;20089;-73
2023/12/17 05:31:45;;;;;;;0.10;0.10;;;9.20;92.10;;;;;;5089289;28;20745;-73
2023/12/17 05:34:11;;;;;;;0.00;0.00;;;9.20;92.10;;;;;;5088417;28;20051;-74
2023/12/17 05:36:36;;;;;;;0.25;0.25;;;9.20;92.00;;;;;;5089136;28;20036;-74
2023/12/17 05:39:02;;;;;;;0.90;0.63;;;9.20;92.00;;;;;;5089234;28;20048;-73
2023/12/17 05:41:28;;;;;;;0.08;0.08;;;9.20;92.00;;;;;;5089445;28;20403;-73
2023/12/17 05:43:54;;;;;;;0.00;0.00;;;9.20;92.00;;;;;;5053718;28;20047;-73
2023/12/17 05:46:19;;;;;;;0.00;0.00;;;9.20;92.00;;;;;;5088916;28;20535;-73
2023/12/17 05:48:45;;;;;;;0.10;0.10;;;9.20;91.90;;;;;;5071076;28;20051;-74
2023/12/17 05:51:10;;;;;;;0.00;0.00;;;9.30;91.90;;;;;;5089241;28;20032;-74
2023/12/17 05:53:36;;;;;;;0.00;0.00;;;9.20;91.90;;;;;;5088279;28;20040;-73
2023/12/17 05:56:02;;;;;;;0.00;0.00;;;9.30;91.90;;;;;;5087588;28;20124;-74
2023/12/17 05:58:27;;;;;;;0.00;0.00;;;9.20;91.90;;;;;;5086939;28;20048;-74
2023/12/17 06:00:56;;;;;;;0.00;0.00;;;9.20;92.00;;;;;;5089229;28;20047;-74
2023/12/17 06:03:21;;;;;;;0.30;0.30;;;9.20;91.90;;;;;;5088979;28;20047;-73
2023/12/17 06:05:47;;;;;;;0.20;0.20;;;9.30;92.00;;;;;;5088989;28;20052;-73
2023/12/17 06:08:12;;;;;;;0.65;0.65;;;9.20;92.00;;;;;;5088848;28;20044;-73
2023/12/17 06:10:39;;;;;;;2.05;0.30;;;9.20;92.00;;;;;;5087763;28;20043;-73
2023/12/17 06:13:05;;;;;;;1.48;1.38;;;9.30;92.10;;;;;;5088180;28;20036;-73
2023/12/17 06:15:30;;;;;;;0.00;0.00;;;9.20;92.00;;;;;;5088571;28;20165;-74
2023/12/17 06:17:56;;;;;;;25.25;1.95;;;9.30;91.90;;;;;;5070487;28;20130;-74
2023/12/17 06:20:22;;;;;;;0.00;0.00;;;9.30;91.90;;;;;;5088554;28;20048;-74
2023/12/17 06:22:49;;;;;;;1.35;0.85;;;9.30;92.00;;;;;;5086023;28;20047;-73
2023/12/17 06:25:16;;;;;;;0.85;0.82;;;9.20;91.90;;;;;;5086461;28;20040;-73
2023/12/17 06:27:42;;;;;;;0.08;0.08;;;9.30;92.30;;;;;;5086487;28;20051;-73
2023/12/17 06:30:08;;;;;;;0.00;0.00;;;9.20;92.20;;;;;;5086740;28;20048;-73
2023/12/17 06:32:34;;;;;;;0.30;0.30;;;9.20;92.20;;;;;;5086820;28;20130;-73
2023/12/17 06:34:59;;;;;;;0.00;0.00;;;9.30;92.20;;;;;;5086608;28;20127;-73
2023/12/17 06:37:25;;;;;;;0.00;0.00;;;9.20;92.20;;;;;;5085620;28;20119;-73
2023/12/17 06:39:50;;;;;;;0.00;0.00;;;9.20;92.30;;;;;;5087141;28;20558;-73
2023/12/17 06:42:16;;;;;;;0.00;0.00;;;9.30;92.40;;;;;;5088026;28;20071;-73
2023/12/17 06:44:42;;;;;;;0.00;0.00;;;9.30;92.30;;;;;;5086378;28;20040;-73
2023/12/17 06:47:07;;;;;;;0.00;0.00;;;9.30;92.40;;;;;;5069134;28;20036;-73
2023/12/17 06:49:36;;;;;;;0.00;0.00;;;9.30;92.30;;;;;;5087084;28;20086;-73
2023/12/17 06:52:01;;;;;;;0.00;0.00;;;9.30;92.20;;;;;;5086077;28;20040;-73
2023/12/17 06:54:27;;;;;;;0.00;0.00;;;9.30;92.30;;;;;;5086826;28;20390;-73
2023/12/17 06:56:53;;;;;;;0.57;0.57;;;9.30;92.20;;;;;;5087518;28;20052;-73
2023/12/17 06:59:18;;;;;;;0.00;0.00;;;9.40;92.40;;;;;;5085464;28;20134;-70
2023/12/17 07:01:44;;;;;;;0.10;0.10;;;9.40;92.30;;;;;;5085657;28;20071;-74
2023/12/17 07:04:10;;;;;;;0.47;0.47;;;9.40;92.40;;;;;;5066974;28;20036;-73
2023/12/17 07:06:36;;;;;;;0.00;0.00;;;9.40;92.50;;;;;;5086131;28;20122;-72
2023/12/17 07:09:02;;;;;;;0.10;0.10;;;9.50;92.40;;;;;;5086658;28;20051;-72
2023/12/17 07:11:27;;;;;;;1.00;0.85;;;9.40;92.40;;;;;;5085594;28;20048;-72
2023/12/17 07:13:56;;;;;;;0.38;0.38;;;9.40;92.60;;;;;;5084279;28;20044;-72
2023/12/17 07:16:23;;;;;;;0.00;0.00;;;9.40;92.60;;;;;;5086255;28;20556;-71
2023/12/17 07:18:49;;;;;;;0.00;0.00;;;9.30;92.80;;;;;;5084957;28;20602;-72
2023/12/17 07:21:15;;;;;;;0.10;0.10;;;9.30;92.70;;;;;;5086118;28;20055;-73
2023/12/17 07:23:41;;;;;;;0.00;0.00;;;9.30;92.70;;;;;;5085697;28;20547;-74
2023/12/17 07:26:07;;;;;;;1.00;0.63;;;9.30;92.70;;;;;;5067487;28;20048;-72
2023/12/17 07:28:32;;;;;;;0.00;0.00;;;9.30;92.60;;;;;;5087123;28;20082;-72
2023/12/17 07:30:58;;;;;;;0.20;0.20;;;9.30;92.70;;;;;;5067688;28;20825;-72
2023/12/17 07:33:24;;;;;;;0.00;0.00;;;9.40;92.50;;;;;;5081936;28;20046;-72
2023/12/17 07:35:50;;;;;;;0.00;0.00;;;9.30;92.60;;;;;;5084602;28;20125;-72
2023/12/17 07:38:16;;;;;;;0.10;0.10;;;9.30;92.80;;;;;;5085047;28;20529;-72
2023/12/17 07:40:42;;;;;;;0.00;0.00;;;9.30;92.60;;;;;;5085526;28;20033;-73
2023/12/17 07:43:08;;;;;;;0.10;0.10;;;9.30;92.50;;;;;;5070873;28;20033;-73
2023/12/17 07:45:34;;;;;;;0.35;0.35;;;9.20;92.60;;;;;;5067216;28;20040;-72
2023/12/17 07:47:59;;;;;;;0.05;0.05;;;9.30;92.70;;;;;;5084359;28;20067;-73
2023/12/17 07:50:25;;;;;;;0.00;0.00;;;9.20;92.70;;;;;;5085241;28;20040;-73
2023/12/17 07:52:51;;;;;;;1.30;1.20;;;9.20;92.60;;;;;;5087657;28;20402;-72
2023/12/17 07:55:17;;;;;;;0.10;0.10;;;9.20;92.70;;;;;;5087377;28;20103;-73
2023/12/17 07:57:42;;;;;;;0.00;0.00;;;9.10;92.80;;;;;;5087022;28;20080;-73
2023/12/17 08:00:10;;;;;;;0.00;0.00;;;9.10;92.80;;;;;;5087866;28;20048;-74
2023/12/17 08:02:37;;;;;;;0.00;0.00;;;9.10;92.80;;;;;;5074484;28;20051;-73
2023/12/17 08:05:05;;;;;;;0.30;0.30;;;9.10;93.00;;;;;;5084397;28;20036;-73
2023/12/17 08:07:31;;;;;;;0.00;0.00;;;9.10;93.10;;;;;;5062599;28;20502;-73
2023/12/17 08:09:58;;;;;;;0.10;0.10;;;9.10;93.00;;;;;;5079982;28;20042;-73
2023/12/17 08:12:23;;;;;;;0.00;0.00;;;9.10;92.80;;;;;;5090805;28;20032;-74
2023/12/17 08:14:49;;;;;;;0.00;0.00;;;9.10;92.80;;;;;;5088261;28;20102;-73
2023/12/17 08:17:15;;;;;;;0.08;0.08;;;9.10;92.80;;;;;;5100609;28;20115;-73
2023/12/17 08:19:42;;;;;;;0.05;0.05;;;9.10;92.70;;;;;;5083508;28;20487;-73
2023/12/17 08:22:09;;;;;;;0.30;0.10;;;9.20;92.60;;;;;;5090393;28;20040;-72
2023/12/17 08:24:34;;;;;;;0.70;0.63;;;9.10;92.60;;;;;;5091837;28;20074;-73
2023/12/17 08:27:01;;;;;;;0.10;0.10;;;9.10;92.70;;;;;;5090045;28;20079;-73
2023/12/17 08:29:27;;;;;;;0.00;0.00;;;9.10;92.80;;;;;;5088934;28;20060;-72
2023/12/17 08:31:53;;;;;;;0.10;0.10;;;9.20;92.50;;;;;;5090272;28;20660;-73
2023/12/17 08:34:19;;;;;;;0.20;0.20;;;9.10;92.40;;;;;;5089749;28;20052;-72
2023/12/17 08:36:44;;;;;;;0.15;0.15;;;9.20;92.40;;;;;;5090329;28;20044;-73
2023/12/17 08:39:11;;;;;;;0.00;0.00;;;9.10;92.30;;;;;;5089711;28;20407;-73
2023/12/17 08:41:38;;;;;;;0.00;0.00;;;9.10;92.40;;;;;;5085508;28;20102;-73
2023/12/17 08:44:04;;;;;;;0.00;0.00;;;9.10;92.40;;;;;;5104122;28;20104;-73
2023/12/17 08:46:30;;;;;;;0.00;0.00;;;9.20;92.40;;;;;;5089603;28;20123;-73
2023/12/17 08:48:55;;;;;;;0.10;0.10;;;9.10;92.40;;;;;;5089355;28;20124;-73
2023/12/17 08:51:21;;;;;;;2.22;1.65;;;9.20;92.30;;;;;;5089223;28;20032;-72
2023/12/17 08:53:47;;;;;;;0.00;0.00;;;9.20;92.30;;;;;;5084944;28;20533;-72
2023/12/17 08:56:13;;;;;;;0.00;0.00;;;9.10;92.20;;;;;;5083357;28;20177;-73
2023/12/17 08:58:39;;;;;;;0.00;0.00;;;9.10;92.30;;;;;;5089388;28;20391;-73
2023/12/17 09:01:04;;;;;;;0.00;0.00;;;9.20;92.30;;;;;;5087468;28;20035;-73
2023/12/17 09:03:30;;;;;;;0.00;0.00;;;9.20;92.20;;;;;;5081729;28;20051;-73
2023/12/17 09:05:56;;;;;;;0.00;0.00;;;9.20;92.30;;;;;;5088237;28;20039;-74
2023/12/17 09:08:21;;;;;;;0.35;0.35;;;9.30;92.20;;;;;;5089367;28;20044;-73
2023/12/17 09:10:47;;;;;;;1.05;0.95;;;9.30;92.20;;;;;;5088207;28;20143;-74
2023/12/17 09:13:13;;;;;;;0.00;0.00;;;9.20;92.20;;;;;;5088500;28;20062;-75
2023/12/17 09:15:39;;;;;;;0.35;0.35;;;9.30;92.20;;;;;;5089954;28;20096;-74
2023/12/17 09:18:05;;;;;;;0.00;0.00;;;9.30;91.90;;;;;;5087358;28;20819;-75
2023/12/17 09:20:31;;;;;;;0.13;0.13;;;9.30;91.80;;;;;;5087165;28;20042;-73
2023/12/17 09:22:58;;;;;;;0.10;0.10;;;9.40;91.80;;;;;;5088205;28;20048;-72
2023/12/17 09:25:24;;;;;;;0.10;0.10;;;9.30;91.70;;;;;;5088115;28;20437;-73
2023/12/17 09:27:51;;;;;;;0.13;0.13;;;9.30;91.70;;;;;;5086816;28;20048;-72
2023/12/17 09:30:17;;;;;;;0.00;0.00;;;9.40;91.60;;;;;;5079448;28;20107;-73
2023/12/17 09:32:44;;;;;;;0.00;0.00;;;9.40;91.40;;;;;;5087944;28;20036;-72
2023/12/17 09:35:10;;;;;;;0.17;0.17;;;9.40;91.40;;;;;;5087605;28;20669;-73
2023/12/17 09:37:37;;;;;;;0.30;0.30;;;9.40;91.30;;;;;;5088330;28;20048;-74
2023/12/17 09:40:03;;;;;;;0.60;0.55;;;9.40;91.40;;;;;;5087152;28;20039;-74
2023/12/17 09:42:30;;;;;;;0.20;0.20;;;9.40;91.20;;;;;;5087744;28;20051;-75
2023/12/17 09:44:56;;;;;;;0.10;0.10;;;9.30;91.30;;;;;;5087519;28;20063;-74
2023/12/17 09:47:21;;;;;;;0.10;0.10;;;9.50;91.10;;;;;;5087727;28;20040;-75
2023/12/17 09:49:47;;;;;;;0.00;0.00;;;9.40;91.00;;;;;;5087939;28;20056;-75
2023/12/17 09:52:16;;;;;;;0.08;0.08;;;9.40;90.70;;;;;;5088163;28;20052;-73
2023/12/17 09:54:43;;;;;;;0.00;0.00;;;9.30;90.90;;;;;;5087850;28;20052;-73
2023/12/17 09:57:11;;;;;;;0.10;0.10;;;9.40;90.70;;;;;;5088226;28;20047;-75
2023/12/17 09:59:37;;;;;;;0.10;0.10;;;9.40;90.60;;;;;;5087585;28;20056;-75
2023/12/17 10:02:03;;;;;;;0.00;0.00;;;9.40;90.60;;;;;;5087529;28;20047;-75
2023/12/17 10:04:28;;;;;;;0.00;0.00;;;9.30;90.70;;;;;;5069535;28;20084;-75
2023/12/17 10:06:54;;;;;;;0.10;0.10;;;9.30;90.70;;;;;;5087849;28;20075;-74
2023/12/17 10:09:19;;;;;;;0.00;0.00;;;9.50;90.80;;;;;;5083115;28;20040;-74
2023/12/17 10:11:45;;;;;;;1.00;0.90;;;9.40;90.90;;;;;;5087991;28;20471;-72
2023/12/17 10:14:25;;;;;;;0.17;0.17;;;9.40;90.70;;;;;;5088493;28;20541;-74
2023/12/17 10:16:51;;;;;;;0.10;0.10;;;9.40;90.40;;;;;;5086724;28;20035;-73
2023/12/17 10:19:17;;;;;;;0.10;0.10;;;9.40;90.40;;;;;;5086598;28;20048;-73
2023/12/17 10:21:43;;;;;;;0.82;0.82;;;9.30;90.40;;;;;;5087483;28;20044;-73
2023/12/17 10:24:10;;;;;;;1.75;1.27;;;9.30;90.40;;;;;;5085990;28;20048;-72
2023/12/17 10:26:47;;;;;;;0.20;0.20;;;9.40;90.30;;;;;;5086375;28;20074;-72
2023/12/17 10:29:16;;;;;;;1.08;0.63;;;9.40;90.50;;;;;;5088204;28;20060;-72
2023/12/17 10:31:43;;;;;;;0.03;0.03;;;9.50;90.40;;;;;;5086832;28;20214;-71
2023/12/17 10:34:19;;;;;;;0.00;0.00;;;9.40;90.00;;;;;;5086863;28;20137;-72
2023/12/17 10:36:52;;;;;;;0.00;0.00;;;9.30;90.20;;;;;;5087351;28;20036;-71
2023/12/17 10:39:19;;;;;;;0.00;0.00;;;9.50;90.30;;;;;;5076335;28;20719;-71
2023/12/17 10:41:48;;;;;;;0.00;0.00;;;9.40;90.10;;;;;;5081776;28;20617;-72
2023/12/17 10:44:15;;;;;;;0.10;0.10;;;9.30;90.20;;;;;;5081504;28;20082;-72
2023/12/17 10:46:43;;;;;;;0.45;0.45;;;9.50;90.00;;;;;;5087046;28;20135;-71
2023/12/17 10:49:10;;;;;;;0.25;0.25;;;9.40;90.00;;;;;;5087973;28;20048;-71
2023/12/17 10:51:42;;;;;;;0.63;0.57;;;9.40;90.10;;;;;;5086478;28;20985;-71
2023/12/17 10:54:08;;;;;;;0.05;0.05;;;9.40;90.20;;;;;;5086685;28;20040;-72
2023/12/17 10:56:41;;;;;;;0.03;0.03;;;9.40;90.30;;;;;;5085632;28;20051;-71
2023/12/17 10:59:13;;;;;;;10.02;2.55;;;9.40;90.00;;;;;;5083341;28;20075;-71
2023/12/17 11:01:41;;;;;;;0.90;0.90;;;9.40;90.30;;;;;;5086807;28;20047;-71
2023/12/17 11:04:07;;;;;;;0.10;0.10;;;9.40;90.20;;;;;;5068301;28;20100;-71
2023/12/17 11:06:33;;;;;;;0.28;0.28;;;9.40;90.40;;;;;;5085867;28;20028;-72
2023/12/17 11:08:59;;;;;;;3.60;0.90;;;9.40;90.20;;;;;;5086062;28;20042;-72
2023/12/17 11:11:26;;;;;;;0.00;0.00;;;9.50;89.90;;;;;;5085942;28;20086;-72
2023/12/17 11:13:53;;;;;;;0.00;0.00;;;9.40;90.00;;;;;;5085714;28;20568;-73
2023/12/17 11:16:29;;;;;;;0.05;0.05;;;9.50;89.80;;;;;;5085960;28;20047;-72
2023/12/17 11:18:59;;;;;;;0.13;0.13;;;9.50;89.90;;;;;;5069199;28;20040;-73
2023/12/17 11:21:29;;;;;;;5.50;2.08;;;9.40;89.80;;;;;;5086392;28;20087;-72
2023/12/17 11:23:58;;;;;;;0.05;0.05;;;9.50;89.80;;;;;;5085679;28;20078;-71
2023/12/17 11:26:24;;;;;;;0.73;0.73;;;9.50;89.40;;;;;;5101121;28;20132;-72
2023/12/17 11:28:50;;;;;;;0.55;0.55;;;9.50;89.60;;;;;;5083864;28;20597;-74
2023/12/17 11:31:17;;;;;;;0.00;0.00;;;9.50;89.50;;;;;;5082086;28;20071;-71
2023/12/17 11:33:44;;;;;;;0.05;0.05;;;9.40;89.60;;;;;;5085846;28;20040;-72
2023/12/17 11:36:12;;;;;;;0.25;0.25;;;9.40;89.60;;;;;;5086112;28;20782;-74
2023/12/17 11:38:38;;;;;;;0.20;0.20;;;9.40;89.70;;;;;;5084715;28;20052;-72
2023/12/17 11:41:05;;;;;;;0.10;0.10;;;9.50;89.40;;;;;;5085561;28;20090;-72
2023/12/17 11:43:31;;;;;;;1.02;1.00;;;9.50;89.30;;;;;;5085463;28;20051;-73
2023/12/17 11:45:58;;;;;;;0.00;0.00;;;9.50;89.40;;;;;;5086134;28;20043;-73
2023/12/17 11:48:28;;;;;;;0.20;0.20;;;9.50;89.40;;;;;;5086036;28;20048;-74
2023/12/17 11:50:59;;;;;;;0.00;0.00;;;9.40;89.10;;;;;;5084619;28;20056;-73
2023/12/17 11:53:27;;;;;;;0.40;0.40;;;9.40;89.40;;;;;;5074866;28;20056;-74
2023/12/17 11:56:01;;;;;;;0.38;0.38;;;9.50;89.50;;;;;;5085037;28;20036;-74
2023/12/17 11:58:29;;;;;;;1.08;0.73;;;9.40;89.40;;;;;;5086112;28;20515;-73
2023/12/17 12:01:12;;;;;;;0.90;0.57;;;9.40;89.50;;;;;;5067837;28;20052;-74
2023/12/17 12:03:41;;;;;;;0.10;0.10;;;9.40;89.50;;;;;;5084255;28;20172;-74
2023/12/17 12:06:11;;;;;;;0.57;0.57;;;9.40;89.60;;;;;;5068566;28;20052;-73
2023/12/17 12:08:42;;;;;;;0.90;0.90;;;9.30;89.60;;;;;;5085091;28;20060;-74
2023/12/17 12:11:13;;;;;;;0.10;0.10;;;9.30;89.70;;;;;;5085549;28;20056;-74
2023/12/17 12:13:42;;;;;;;0.10;0.10;;;9.20;89.70;;;;;;5086041;28;20056;-76
2023/12/17 12:16:09;;;;;;;0.00;0.00;;;9.30;89.70;;;;;;5073743;28;20055;-74
2023/12/17 12:18:35;;;;;;;0.20;0.20;;;9.30;89.80;;;;;;5080191;28;20044;-74
2023/12/17 12:21:01;;;;;;;0.00;0.00;;;9.20;89.80;;;;;;5081373;28;20031;-74
2023/12/17 12:23:27;;;;;;;0.00;0.00;;;9.20;89.80;;;;;;5080203;28;20060;-74
2023/12/17 12:25:59;;;;;;;0.03;0.03;;;9.30;89.90;;;;;;5083201;28;20080;-74
2023/12/17 12:28:25;;;;;;;0.32;0.32;;;9.20;89.80;;;;;;5082099;28;20509;-73
2023/12/17 12:30:51;;;;;;;0.30;0.30;;;9.30;90.00;;;;;;5081792;28;20046;-75
2023/12/17 12:33:18;;;;;;;0.08;0.08;;;9.20;89.80;;;;;;5079524;28;20044;-66
2023/12/17 12:35:45;;;;;;;4.85;1.95;;;9.20;90.30;;;;;;5074829;28;20044;-67
2023/12/17 12:38:20;;;;;;;0.20;0.20;;;9.40;90.10;;;;;;5078067;28;20032;-73
2023/12/17 12:40:45;;;;;;;0.43;0.43;;;9.50;89.70;;;;;;5081873;28;20044;-73
2023/12/17 12:43:11;;;;;;;0.20;0.20;;;9.40;89.50;;;;;;5081469;28;20047;-72
2023/12/17 12:45:37;;;;;;;0.50;0.35;;;9.30;89.40;;;;;;5066332;28;20036;-72
2023/12/17 12:48:03;;;;;;;0.43;0.40;;;9.20;89.50;;;;;;5085607;28;20114;-73
2023/12/17 12:50:30;;;;;;;0.20;0.20;;;9.10;89.40;;;;;;5084772;28;20040;-73
2023/12/17 12:52:56;;;;;;;0.13;0.13;;;9.10;89.70;;;;;;5084506;28;20094;-73